createdAt,value
2022-08-05T00:01:36.304Z,27.60
2022-08-05T00:04:19.125Z,27.60
2022-08-05T00:06:47.035Z,27.60
2022-08-05T00:09:15.985Z,27.60
2022-08-05T00:11:49.202Z,27.50
2022-08-05T00:14:27.733Z,27.50
2022-08-05T00:16:59.077Z,27.50
2022-08-05T00:19:34.002Z,27.50
2022-08-05T00:22:13.250Z,27.40
2022-08-05T00:24:42.238Z,27.40
2022-08-05T00:27:10.435Z,27.40
2022-08-05T00:29:41.626Z,27.40
2022-08-05T00:32:15.265Z,27.40
2022-08-05T00:35:03.918Z,27.30
2022-08-05T00:37:50.720Z,27.30
2022-08-05T00:40:27.506Z,27.30
2022-08-05T00:43:01.055Z,27.30
2022-08-05T00:45:43.075Z,27.30
2022-08-05T00:48:18.221Z,27.30
2022-08-05T00:50:59.049Z,27.30
2022-08-05T00:54:01.325Z,27.30
2022-08-05T00:56:17.329Z,27.30
2022-08-05T00:58:45.148Z,27.20
2022-08-05T01:01:13.602Z,27.20
2022-08-05T01:03:42.489Z,27.20
2022-08-05T01:06:15.456Z,27.20
2022-08-05T01:08:44.467Z,27.20
2022-08-05T01:11:33.334Z,27.10
2022-08-05T01:14:30.510Z,27.10
2022-08-05T01:17:30.269Z,27.00
2022-08-05T01:20:03.274Z,27.00
2022-08-05T01:22:42.704Z,27.00
2022-08-05T01:25:40.923Z,27.00
2022-08-05T01:28:30.687Z,26.90
2022-08-05T01:31:28.051Z,26.90
2022-08-05T01:34:16.282Z,26.90
2022-08-05T01:36:49.361Z,26.90
2022-08-05T01:39:45.637Z,26.80
2022-08-05T01:42:12.976Z,26.80
2022-08-05T01:44:44.284Z,26.80
2022-08-05T01:47:22.836Z,26.70
2022-08-05T01:50:01.667Z,26.80
2022-08-05T01:52:32.714Z,26.80
2022-08-05T01:55:04.384Z,26.80
2022-08-05T01:58:29.945Z,26.80
2022-08-05T02:00:30.349Z,26.80
2022-08-05T02:03:03.926Z,26.70
2022-08-05T02:05:35.957Z,26.70
2022-08-05T02:08:05.234Z,26.60
2022-08-05T02:10:42.650Z,26.60
2022-08-05T02:13:20.741Z,26.60
2022-08-05T02:16:01.506Z,26.50
2022-08-05T02:18:41.799Z,26.50
2022-08-05T02:21:18.275Z,26.50
2022-08-05T02:23:53.377Z,26.50
2022-08-05T02:26:35.529Z,26.50
2022-08-05T02:29:04.160Z,26.50
2022-08-05T02:31:34.969Z,26.50
2022-08-05T02:34:09.197Z,26.50
2022-08-05T02:36:43.925Z,26.50
2022-08-05T02:39:12.988Z,26.50
2022-08-05T02:41:57.941Z,26.50
2022-08-05T02:44:30.583Z,26.60
2022-08-05T02:47:00.734Z,26.60
2022-08-05T02:49:35.688Z,26.60
2022-08-05T02:52:29.383Z,26.50
2022-08-05T02:55:01.865Z,26.50
2022-08-05T02:58:09.763Z,26.40
2022-08-05T03:00:21.663Z,26.40
2022-08-05T03:02:50.538Z,26.30
2022-08-05T03:05:21.725Z,26.20
2022-08-05T03:08:09.383Z,26.00
2022-08-05T03:10:37.353Z,25.90
2022-08-05T03:13:16.848Z,25.70
2022-08-05T03:15:48.348Z,25.70
2022-08-05T03:18:19.321Z,25.50
2022-08-05T03:20:57.310Z,25.40
2022-08-05T03:23:25.430Z,25.40
2022-08-05T03:26:03.746Z,25.40
2022-08-05T03:28:40.943Z,25.30
2022-08-05T03:31:09.336Z,25.30
2022-08-05T03:33:50.950Z,25.30
2022-08-05T03:36:30.478Z,25.40
2022-08-05T03:38:58.637Z,25.50
2022-08-05T03:41:26.179Z,25.50
2022-08-05T03:44:11.234Z,25.60
2022-08-05T03:46:39.526Z,25.60
2022-08-05T03:49:06.939Z,25.70
2022-08-05T03:52:38.144Z,25.70
2022-08-05T03:55:07.137Z,25.80
2022-08-05T03:57:46.108Z,25.80
2022-08-05T04:00:16.323Z,25.80
2022-08-05T04:02:57.903Z,25.80
2022-08-05T04:05:34.714Z,25.90
2022-08-05T04:08:05.792Z,25.90
2022-08-05T04:10:45.166Z,25.90
2022-08-05T04:13:13.268Z,25.90
2022-08-05T04:16:03.319Z,25.90
2022-08-05T04:18:28.955Z,25.90
2022-08-05T04:21:01.010Z,25.90
2022-08-05T04:24:05.677Z,25.90
2022-08-05T04:26:17.512Z,25.80
2022-08-05T04:28:51.107Z,25.70
2022-08-05T04:31:20.383Z,25.60
2022-08-05T04:34:17.663Z,25.60
2022-08-05T04:36:45.972Z,25.60
2022-08-05T04:39:18.250Z,25.60
2022-08-05T04:41:48.063Z,25.70
2022-08-05T04:44:21.425Z,25.90
2022-08-05T04:46:58.927Z,26.00
2022-08-05T04:49:39.053Z,26.10
2022-08-05T04:52:15.719Z,26.30
2022-08-05T04:54:43.274Z,26.40
2022-08-05T04:57:10.709Z,26.50
2022-08-05T04:59:40.745Z,26.50
2022-08-05T05:02:37.136Z,26.60
2022-08-05T05:05:02.358Z,26.60
2022-08-05T05:07:32.249Z,26.80
2022-08-05T05:10:04.460Z,26.80
2022-08-05T05:12:32.620Z,26.90
2022-08-05T05:15:00.043Z,27.00
2022-08-05T05:17:56.460Z,27.20
2022-08-05T05:20:28.369Z,27.20
2022-08-05T05:23:08.191Z,27.30
2022-08-05T05:25:47.884Z,27.40
2022-08-05T05:28:15.381Z,27.50
2022-08-05T05:30:43.146Z,27.70
2022-08-05T05:33:17.704Z,27.80
2022-08-05T05:35:50.929Z,28.00
2022-08-05T05:38:22.722Z,28.10
2022-08-05T05:40:56.237Z,28.20
2022-08-05T05:43:54.318Z,28.20
2022-08-05T05:46:16.061Z,28.30
2022-08-05T05:48:48.038Z,28.50
2022-08-05T05:51:24.195Z,28.70
2022-08-05T05:53:57.736Z,29.00
2022-08-05T05:56:34.143Z,29.30
2022-08-05T05:59:07.657Z,30.00
2022-08-05T06:01:39.557Z,31.00
2022-08-05T06:04:11.668Z,31.60
2022-08-05T06:06:47.536Z,31.90
2022-08-05T06:09:25.793Z,32.30
2022-08-05T06:11:59.986Z,33.10
2022-08-05T06:14:34.746Z,34.40
2022-08-05T06:17:24.200Z,35.30
2022-08-05T06:19:59.043Z,36.00
2022-08-05T06:22:33.862Z,36.70
2022-08-05T06:25:59.388Z,36.40
2022-08-05T06:28:12.584Z,36.70
2022-08-05T06:30:38.538Z,37.80
2022-08-05T06:33:09.958Z,38.30
2022-08-05T06:36:07.872Z,38.70
2022-08-05T06:38:36.429Z,39.30
2022-08-05T06:41:05.505Z,40.00
2022-08-05T06:43:58.487Z,40.40
2022-08-05T06:46:29.711Z,40.40
2022-08-05T06:48:59.167Z,40.80
2022-08-05T06:51:31.015Z,41.20
2022-08-05T06:54:00.379Z,41.70
2022-08-05T06:56:34.169Z,42.00
2022-08-05T06:59:08.426Z,41.90
2022-08-05T07:01:40.560Z,42.10
2022-08-05T07:04:09.148Z,42.20
2022-08-05T07:06:37.386Z,42.10
2022-08-05T07:09:05.213Z,42.20
2022-08-05T07:11:36.766Z,42.80
2022-08-05T07:14:30.299Z,43.00
2022-08-05T07:18:00.541Z,43.60
2022-08-05T07:20:34.118Z,44.00
2022-08-05T07:22:38.095Z,43.90
2022-08-05T07:25:22.432Z,44.00
2022-08-05T07:27:58.151Z,44.00
2022-08-05T07:30:32.077Z,44.80
2022-08-05T07:33:08.794Z,45.40
2022-08-05T07:36:04.527Z,45.50
2022-08-05T07:38:33.197Z,45.30
2022-08-05T07:41:35.296Z,45.20
2022-08-05T07:43:57.949Z,45.20
2022-08-05T07:46:27.386Z,45.00
2022-08-05T07:49:02.311Z,45.00
2022-08-05T07:51:37.195Z,45.10
2022-08-05T07:54:08.415Z,45.20
2022-08-05T07:56:59.931Z,45.60
2022-08-05T07:59:38.705Z,45.70
2022-08-05T08:02:16.902Z,45.00
2022-08-05T08:04:49.402Z,45.80
2022-08-05T08:07:22.131Z,46.20
2022-08-05T08:09:52.467Z,46.90
2022-08-05T08:12:35.287Z,46.90
2022-08-05T08:15:13.871Z,46.70
2022-08-05T08:17:46.125Z,46.70
2022-08-05T08:21:00.186Z,46.50
2022-08-05T08:24:00.436Z,47.00
2022-08-05T08:26:00.048Z,46.70
2022-08-05T08:28:37.244Z,46.60
2022-08-05T08:31:10.051Z,46.40
2022-08-05T08:33:45.968Z,47.00
2022-08-05T08:36:38.261Z,47.10
2022-08-05T08:39:15.661Z,47.10
2022-08-05T08:41:52.511Z,47.10
2022-08-05T08:45:22.191Z,47.20
2022-08-05T08:47:47.285Z,47.20
2022-08-05T08:50:22.873Z,47.80
2022-08-05T08:53:02.045Z,48.10
2022-08-05T08:56:03.512Z,47.70
2022-08-05T08:58:26.227Z,47.60
2022-08-05T09:01:07.492Z,47.50
2022-08-05T09:03:45.038Z,47.00
2022-08-05T09:06:17.201Z,46.80
2022-08-05T09:08:47.966Z,47.10
2022-08-05T09:11:15.654Z,47.50
2022-08-05T09:14:09.535Z,47.60
2022-08-05T09:16:30.883Z,46.40
2022-08-05T09:18:59.297Z,46.60
2022-08-05T09:22:21.973Z,46.20
2022-08-05T09:24:16.080Z,45.80
2022-08-05T09:26:56.238Z,45.90
2022-08-05T09:29:47.969Z,46.70
2022-08-05T09:32:41.620Z,46.90
2022-08-05T09:35:11.606Z,46.60
2022-08-05T09:38:17.541Z,46.20
2022-08-05T09:40:44.601Z,46.40
2022-08-05T09:43:40.605Z,46.60
2022-08-05T09:46:34.082Z,46.40
2022-08-05T09:49:18.631Z,46.40
2022-08-05T09:51:49.512Z,46.30
2022-08-05T09:54:21.438Z,46.20
2022-08-05T09:56:57.630Z,46.10
2022-08-05T09:59:29.049Z,46.20
2022-08-05T10:02:02.712Z,46.80
2022-08-05T10:04:39.665Z,47.00
2022-08-05T10:07:19.884Z,46.40
2022-08-05T10:10:15.136Z,46.00
2022-08-05T10:12:54.782Z,46.00
2022-08-05T10:15:29.618Z,45.60
2022-08-05T10:18:23.056Z,46.10
2022-08-05T10:20:53.587Z,46.00
2022-08-05T10:23:50.861Z,46.10
2022-08-05T10:26:14.261Z,46.10
2022-08-05T10:28:46.474Z,45.80
2022-08-05T10:32:54.652Z,45.30
2022-08-05T10:34:07.006Z,44.90
2022-08-05T10:36:40.927Z,45.10
2022-08-05T10:39:24.870Z,44.70
2022-08-05T10:42:32.445Z,44.50
2022-08-05T10:45:21.611Z,44.60
2022-08-05T10:48:31.305Z,44.30
2022-08-05T10:51:03.350Z,44.90
2022-08-05T10:53:42.748Z,45.30
2022-08-05T10:56:25.134Z,45.40
2022-08-05T10:58:55.946Z,45.60
2022-08-05T11:01:55.216Z,45.70
2022-08-05T11:04:26.290Z,45.60
2022-08-05T11:07:06.483Z,44.80
2022-08-05T11:09:46.639Z,44.00
2022-08-05T11:12:29.532Z,43.10
2022-08-05T11:15:59.294Z,42.00
2022-08-05T11:18:34.150Z,40.70
2022-08-05T11:21:11.490Z,39.50
2022-08-05T11:24:04.648Z,38.90
2022-08-05T11:26:32.391Z,38.70
2022-08-05T11:29:13.059Z,38.20
2022-08-05T11:31:58.242Z,37.90
2022-08-05T11:34:39.612Z,37.80
2022-08-05T11:38:29.218Z,37.80
2022-08-05T11:40:00.858Z,37.80
2022-08-05T11:42:38.127Z,37.70
2022-08-05T11:45:23.438Z,37.70
2022-08-05T11:47:57.160Z,37.60
2022-08-05T11:50:26.762Z,37.70
2022-08-05T11:52:57.944Z,37.80
2022-08-05T11:55:32.234Z,37.80
2022-08-05T11:58:10.168Z,37.90
2022-08-05T12:00:41.363Z,37.60
2022-08-05T12:03:28.674Z,37.60
2022-08-05T12:06:06.665Z,37.60
2022-08-05T12:08:53.117Z,37.50
2022-08-05T12:11:23.838Z,37.30
2022-08-05T12:14:04.514Z,37.40
2022-08-05T12:16:34.499Z,37.30
2022-08-05T12:19:08.327Z,37.10
2022-08-05T12:21:46.903Z,37.00
2022-08-05T12:24:20.354Z,37.00
2022-08-05T12:26:50.170Z,37.10
2022-08-05T12:29:22.522Z,37.20
2022-08-05T12:32:01.954Z,37.30
2022-08-05T12:34:32.581Z,37.30
2022-08-05T12:37:16.970Z,37.30
2022-08-05T12:39:51.068Z,37.40
2022-08-05T12:42:21.088Z,37.50
2022-08-05T12:44:49.154Z,37.50
2022-08-05T12:47:30.710Z,37.30
2022-08-05T12:50:02.244Z,37.30
2022-08-05T12:52:41.962Z,37.40
2022-08-05T12:55:36.735Z,37.40
2022-08-05T12:58:49.459Z,37.30
2022-08-05T13:02:02.433Z,37.10
2022-08-05T13:03:42.114Z,37.00
2022-08-05T13:06:16.942Z,37.00
2022-08-05T13:08:52.049Z,37.10
2022-08-05T13:12:01.741Z,37.20
2022-08-05T13:14:24.821Z,37.30
2022-08-05T13:17:16.279Z,37.50
2022-08-05T13:20:06.531Z,37.50
2022-08-05T13:22:43.390Z,37.40
2022-08-05T13:25:18.773Z,37.30
2022-08-05T13:27:50.587Z,37.30
2022-08-05T13:30:34.712Z,37.40
2022-08-05T13:33:03.813Z,37.50
2022-08-05T13:35:42.777Z,37.50
2022-08-05T13:38:20.252Z,37.40
2022-08-05T13:41:01.134Z,37.30
2022-08-05T13:43:45.722Z,37.20
2022-08-05T13:46:30.847Z,37.10
2022-08-05T13:49:04.780Z,36.90
2022-08-05T13:51:41.621Z,36.50
2022-08-05T13:54:15.372Z,36.40
2022-08-05T13:56:50.688Z,36.50
2022-08-05T13:59:24.840Z,36.60
2022-08-05T14:01:57.911Z,36.70
2022-08-05T14:05:05.219Z,36.80
2022-08-05T14:08:01.223Z,36.70
2022-08-05T14:10:31.130Z,36.80
2022-08-05T14:12:59.843Z,36.90
2022-08-05T14:16:07.758Z,36.90
2022-08-05T14:18:17.885Z,37.00
2022-08-05T14:20:48.237Z,36.90
2022-08-05T14:23:19.137Z,36.90
2022-08-05T14:25:58.910Z,36.90
2022-08-05T14:28:30.799Z,36.90
2022-08-05T14:30:59.777Z,37.00
2022-08-05T14:33:57.013Z,37.00
2022-08-05T14:36:20.627Z,36.90
2022-08-05T14:38:50.219Z,36.90
2022-08-05T14:41:18.678Z,36.90
2022-08-05T14:43:59.722Z,36.80
2022-08-05T14:46:35.152Z,36.90
2022-08-05T14:49:06.441Z,36.90
2022-08-05T14:51:38.925Z,36.90
2022-08-05T14:54:28.458Z,36.90
2022-08-05T14:56:58.607Z,36.90
2022-08-05T14:59:29.657Z,37.00
2022-08-05T15:02:15.854Z,37.10
2022-08-05T15:04:43.889Z,37.10
2022-08-05T15:08:06.697Z,37.00
2022-08-05T15:10:01.418Z,36.90
2022-08-05T15:12:40.913Z,37.00
2022-08-05T15:15:16.794Z,37.00
2022-08-05T15:18:05.710Z,37.10
2022-08-05T15:20:33.950Z,37.00
2022-08-05T15:23:09.829Z,37.00
2022-08-05T15:25:51.965Z,37.10
2022-08-05T15:28:24.430Z,37.00
2022-08-05T15:30:55.646Z,36.90
2022-08-05T15:34:05.762Z,36.90
2022-08-05T15:36:17.690Z,36.80
2022-08-05T15:40:41.511Z,36.90
2022-08-05T15:41:57.533Z,36.90
2022-08-05T15:44:29.974Z,36.90
2022-08-05T15:46:59.283Z,36.90
2022-08-05T15:49:47.921Z,36.80
2022-08-05T15:52:16.777Z,36.80
2022-08-05T15:54:57.191Z,36.80
2022-08-05T15:57:24.882Z,36.80
2022-08-05T15:59:57.587Z,36.80
2022-08-05T16:02:28.840Z,36.80
2022-08-05T16:04:56.421Z,36.80
2022-08-05T16:07:23.862Z,36.80
2022-08-05T16:09:51.302Z,36.70
2022-08-05T16:12:21.651Z,36.60
2022-08-05T16:14:49.063Z,36.60
2022-08-05T16:17:16.469Z,36.50
2022-08-05T16:20:04.526Z,36.40
2022-08-05T16:22:34.107Z,36.30
2022-08-05T16:25:05.339Z,36.30
2022-08-05T16:28:00.453Z,36.30
2022-08-05T16:30:28.769Z,36.30
2022-08-05T16:32:57.939Z,36.30
2022-08-05T16:35:28.691Z,36.30
2022-08-05T16:38:15.604Z,36.30
2022-08-05T16:40:51.966Z,36.30
2022-08-05T16:43:28.093Z,36.20
2022-08-05T16:46:04.703Z,36.20
2022-08-05T16:48:38.282Z,36.20
2022-08-05T16:51:08.946Z,36.10
2022-08-05T16:54:05.365Z,36.10
2022-08-05T16:56:30.919Z,36.10
2022-08-05T16:58:58.914Z,36.10
2022-08-05T17:01:53.037Z,36.10
2022-08-05T17:04:16.137Z,36.10
2022-08-05T17:06:46.259Z,36.10
2022-08-05T17:09:24.383Z,36.00
2022-08-05T17:11:59.841Z,36.00
2022-08-05T17:14:36.987Z,35.90
2022-08-05T17:17:14.553Z,35.90
2022-08-05T17:19:45.442Z,35.90
2022-08-05T17:22:24.358Z,35.90
2022-08-05T17:24:57.573Z,35.90
2022-08-05T17:27:33.678Z,35.90
2022-08-05T17:30:11.958Z,35.80
2022-08-05T17:32:46.503Z,35.80
2022-08-05T17:35:15.489Z,35.90
2022-08-05T17:37:45.367Z,35.80
2022-08-05T17:40:17.623Z,35.80
2022-08-05T17:42:50.627Z,35.80
2022-08-05T17:45:22.195Z,35.70
2022-08-05T17:47:54.846Z,35.60
2022-08-05T17:50:28.952Z,35.60
2022-08-05T17:53:02.652Z,35.50
2022-08-05T17:55:37.437Z,35.40
2022-08-05T17:58:13.327Z,35.20
2022-08-05T18:00:45.228Z,35.10
2022-08-05T18:03:39.281Z,35.10
2022-08-05T18:06:06.328Z,35.00
2022-08-05T18:08:39.013Z,34.80
2022-08-05T18:11:24.603Z,34.70
2022-08-05T18:14:01.219Z,34.60
2022-08-05T18:16:32.469Z,34.50
2022-08-05T18:18:59.905Z,34.40
2022-08-05T18:22:07.229Z,34.30
2022-08-05T18:24:14.846Z,34.20
2022-08-05T18:26:43.825Z,34.00
2022-08-05T18:29:11.536Z,33.90
2022-08-05T18:31:42.987Z,33.80
2022-08-05T18:34:12.223Z,33.70
2022-08-05T18:36:41.277Z,33.60
2022-08-05T18:39:41.849Z,33.60
2022-08-05T18:42:04.918Z,33.50
2022-08-05T18:44:55.376Z,33.40
2022-08-05T18:47:26.603Z,33.30
2022-08-05T18:50:15.416Z,33.20
2022-08-05T18:52:50.759Z,33.20
2022-08-05T18:55:20.465Z,33.20
2022-08-05T18:57:53.990Z,33.10
2022-08-05T19:00:28.762Z,33.00
2022-08-05T19:03:03.134Z,33.00
2022-08-05T19:06:11.561Z,32.90
2022-08-05T19:08:21.690Z,32.90
2022-08-05T19:10:50.392Z,32.80
2022-08-05T19:13:18.133Z,32.80
2022-08-05T19:15:59.515Z,32.60
2022-08-05T19:18:28.741Z,32.50
2022-08-05T19:20:56.545Z,32.20
2022-08-05T19:24:06.902Z,32.10
2022-08-05T19:26:12.077Z,32.00
2022-08-05T19:28:43.325Z,31.90
2022-08-05T19:31:13.582Z,31.90
2022-08-05T19:33:48.528Z,31.80
2022-08-05T19:36:25.766Z,31.70
2022-08-05T19:39:00.645Z,31.60
2022-08-05T19:42:05.620Z,31.60
2022-08-05T19:44:19.898Z,31.50
2022-08-05T19:46:47.478Z,31.50
2022-08-05T19:49:18.193Z,31.40
2022-08-05T19:52:05.301Z,31.40
2022-08-05T19:54:34.850Z,31.30
2022-08-05T19:57:09.332Z,31.20
2022-08-05T19:59:55.577Z,31.20
2022-08-05T20:02:26.887Z,31.10
2022-08-05T20:04:58.414Z,31.10
2022-08-05T20:07:47.244Z,31.10
2022-08-05T20:10:16.140Z,31.10
2022-08-05T20:12:46.393Z,31.00
2022-08-05T20:15:23.147Z,30.90
2022-08-05T20:18:10.222Z,30.90
2022-08-05T20:20:57.158Z,30.80
2022-08-05T20:23:39.569Z,30.80
2022-08-05T20:26:16.474Z,30.80
2022-08-05T20:28:56.266Z,30.80
2022-08-05T20:31:36.785Z,30.80
2022-08-05T20:34:11.618Z,30.80
2022-08-05T20:36:43.555Z,30.80
2022-08-05T20:39:13.245Z,30.80
2022-08-05T20:41:43.724Z,30.70
2022-08-05T20:44:19.204Z,30.70
2022-08-05T20:47:03.108Z,30.70
2022-08-05T20:49:38.034Z,30.70
2022-08-05T20:52:08.413Z,30.60
2022-08-05T20:54:43.214Z,30.60
2022-08-05T20:57:42.096Z,30.60
2022-08-05T21:00:40.099Z,30.60
2022-08-05T21:03:07.394Z,30.60
2022-08-05T21:05:48.264Z,30.50
2022-08-05T21:08:41.831Z,30.50
2022-08-05T21:11:12.768Z,30.60
2022-08-05T21:13:47.745Z,30.50
2022-08-05T21:16:29.556Z,30.50
2022-08-05T21:19:00.435Z,30.40
2022-08-05T21:21:44.006Z,30.40
2022-08-05T21:24:16.905Z,30.40
2022-08-05T21:26:53.612Z,30.50
2022-08-05T21:29:31.732Z,30.50
2022-08-05T21:32:01.362Z,30.50
2022-08-05T21:34:29.163Z,30.50
2022-08-05T21:36:59.278Z,30.50
2022-08-05T21:39:27.812Z,30.50
2022-08-05T21:42:01.705Z,30.40
2022-08-05T21:44:31.081Z,30.50
2022-08-05T21:47:00.168Z,30.50
2022-08-05T21:49:48.599Z,30.50
2022-08-05T21:52:26.716Z,30.50
2022-08-05T21:54:57.823Z,30.50
2022-08-05T21:57:35.611Z,30.50
2022-08-05T22:00:06.945Z,30.50
2022-08-05T22:02:42.589Z,30.50
2022-08-05T22:05:11.438Z,30.50
2022-08-05T22:07:58.518Z,30.50
2022-08-05T22:10:27.657Z,30.50
2022-08-05T22:12:57.265Z,30.40
2022-08-05T22:15:56.521Z,30.30
2022-08-05T22:18:14.495Z,30.20
2022-08-05T22:20:44.269Z,30.10
2022-08-05T22:24:00.865Z,30.00
2022-08-05T22:26:38.332Z,30.00
2022-08-05T22:29:06.709Z,29.90
2022-08-05T22:31:44.901Z,29.90
2022-08-05T22:34:12.850Z,29.80
2022-08-05T22:36:48.187Z,29.80
2022-08-05T22:39:19.879Z,29.70
2022-08-05T22:42:11.191Z,29.70
2022-08-05T22:44:36.418Z,29.70
2022-08-05T22:47:04.974Z,29.60
2022-08-05T22:50:21.633Z,29.60
2022-08-05T22:52:30.145Z,29.50
2022-08-05T22:54:59.768Z,29.50
2022-08-05T22:57:27.567Z,29.50
2022-08-05T23:00:09.263Z,29.40
2022-08-05T23:02:38.503Z,29.40
2022-08-05T23:05:15.269Z,29.40
2022-08-05T23:07:45.021Z,29.30
2022-08-05T23:10:19.682Z,29.30
2022-08-05T23:12:51.690Z,29.30
2022-08-05T23:15:29.825Z,29.30
2022-08-05T23:18:03.322Z,29.30
2022-08-05T23:20:32.752Z,29.30
2022-08-05T23:23:03.461Z,29.30
2022-08-05T23:25:51.447Z,29.30
2022-08-05T23:28:22.356Z,29.30
2022-08-05T23:30:54.078Z,29.20
2022-08-05T23:33:26.238Z,29.20
2022-08-05T23:36:10.993Z,29.10
2022-08-05T23:38:42.095Z,29.00
2022-08-05T23:41:11.075Z,29.00
2022-08-05T23:44:04.983Z,28.90
2022-08-05T23:46:26.382Z,28.90
2022-08-05T23:49:00.277Z,28.90
2022-08-05T23:51:53.532Z,28.80
2022-08-05T23:54:34.134Z,28.80
2022-08-05T23:57:06.082Z,28.70
